createdAt,value
2022-07-29T00:02:16.726Z,27.03
2022-07-29T00:04:43.602Z,27.05
2022-07-29T00:07:10.550Z,27.09
2022-07-29T00:09:44.905Z,27.06
2022-07-29T00:12:17.972Z,27.03
2022-07-29T00:14:53.514Z,27.07
2022-07-29T00:17:20.260Z,27.07
2022-07-29T00:19:46.922Z,27.01
2022-07-29T00:22:13.717Z,27.01
2022-07-29T00:24:40.592Z,26.99
2022-07-29T00:27:07.732Z,26.96
2022-07-29T00:29:35.055Z,26.90
2022-07-29T00:32:03.274Z,26.86
2022-07-29T00:34:49.335Z,26.88
2022-07-29T00:37:16.043Z,26.90
2022-07-29T00:39:42.845Z,26.89
2022-07-29T00:42:10.631Z,26.87
2022-07-29T00:44:41.862Z,26.85
2022-07-29T00:47:09.673Z,26.83
2022-07-29T00:49:36.897Z,26.83
2022-07-29T00:52:06.486Z,26.89
2022-07-29T00:54:34.819Z,26.83
2022-07-29T00:57:01.870Z,26.77
2022-07-29T00:59:34.882Z,26.77
2022-07-29T01:02:03.248Z,26.79
2022-07-29T01:04:30.803Z,26.87
2022-07-29T01:07:00.072Z,26.95
2022-07-29T01:09:45.174Z,26.96
2022-07-29T01:12:18.722Z,26.96
2022-07-29T01:14:46.961Z,26.88
2022-07-29T01:17:21.921Z,26.81
2022-07-29T01:20:31.365Z,26.82
2022-07-29T01:23:55.864Z,26.87
2022-07-29T01:26:44.339Z,26.88
2022-07-29T01:29:36.080Z,26.88
2022-07-29T01:32:28.526Z,26.98
2022-07-29T01:35:10.731Z,27.01
2022-07-29T01:37:39.796Z,26.99
2022-07-29T01:40:12.070Z,26.98
2022-07-29T01:42:46.614Z,26.98
2022-07-29T01:45:43.222Z,26.92
2022-07-29T01:48:16.232Z,26.90
2022-07-29T01:50:52.109Z,26.89
2022-07-29T01:53:38.977Z,26.87
2022-07-29T01:56:08.203Z,26.83
2022-07-29T01:58:36.399Z,26.80
2022-07-29T02:01:03.911Z,26.81
2022-07-29T02:03:31.341Z,26.84
2022-07-29T02:05:58.641Z,26.85
2022-07-29T02:08:26.384Z,26.95
2022-07-29T02:10:54.605Z,26.98
2022-07-29T02:13:23.513Z,26.98
2022-07-29T02:15:51.517Z,26.95
2022-07-29T02:18:19.828Z,26.84
2022-07-29T02:20:49.679Z,26.75
2022-07-29T02:23:24.660Z,26.69
2022-07-29T02:25:54.608Z,26.66
2022-07-29T02:28:25.783Z,26.60
2022-07-29T02:30:53.919Z,26.62
2022-07-29T02:33:22.869Z,26.56
2022-07-29T02:35:49.704Z,26.60
2022-07-29T02:38:35.812Z,26.61
2022-07-29T02:41:05.578Z,26.73
2022-07-29T02:43:32.863Z,26.82
2022-07-29T02:46:00.480Z,26.82
2022-07-29T02:48:38.133Z,26.69
2022-07-29T02:51:44.123Z,26.64
2022-07-29T02:54:09.088Z,26.57
2022-07-29T02:56:36.217Z,26.55
2022-07-29T02:59:05.670Z,26.57
2022-07-29T03:01:34.026Z,26.56
2022-07-29T03:04:03.149Z,26.60
2022-07-29T03:06:38.477Z,26.60
2022-07-29T03:09:12.542Z,26.63
2022-07-29T03:11:46.137Z,26.60
2022-07-29T03:14:18.835Z,26.50
2022-07-29T03:16:46.270Z,26.43
2022-07-29T03:19:13.057Z,26.40
2022-07-29T03:21:40.025Z,26.38
2022-07-29T03:24:10.284Z,26.43
2022-07-29T03:26:37.518Z,26.37
2022-07-29T03:29:04.153Z,26.42
2022-07-29T03:31:30.832Z,26.40
2022-07-29T03:33:58.492Z,26.32
2022-07-29T03:36:27.842Z,26.22
2022-07-29T03:38:55.601Z,26.09
2022-07-29T03:41:23.355Z,25.92
2022-07-29T03:43:50.975Z,25.80
2022-07-29T03:46:18.486Z,25.73
2022-07-29T03:48:50.144Z,25.69
2022-07-29T03:51:16.823Z,25.71
2022-07-29T03:53:43.647Z,25.78
2022-07-29T03:56:11.617Z,25.82
2022-07-29T03:58:38.780Z,25.86
2022-07-29T04:01:05.444Z,25.96
2022-07-29T04:03:32.233Z,26.10
2022-07-29T04:06:07.101Z,26.20
2022-07-29T04:08:34.836Z,26.28
2022-07-29T04:11:02.500Z,26.32
2022-07-29T04:13:29.481Z,26.40
2022-07-29T04:15:56.284Z,26.38
2022-07-29T04:18:23.227Z,26.31
2022-07-29T04:20:50.064Z,26.33
2022-07-29T04:23:16.692Z,26.36
2022-07-29T04:25:44.262Z,26.37
2022-07-29T04:28:11.438Z,26.33
2022-07-29T04:30:38.737Z,26.37
2022-07-29T04:33:07.316Z,26.55
2022-07-29T04:35:38.912Z,26.72
2022-07-29T04:38:17.168Z,26.92
2022-07-29T04:40:44.073Z,27.11
2022-07-29T04:43:10.794Z,27.35
2022-07-29T04:45:39.812Z,27.52
2022-07-29T04:48:06.581Z,27.63
2022-07-29T04:50:33.444Z,27.80
2022-07-29T04:52:59.997Z,27.96
2022-07-29T04:55:26.856Z,28.01
2022-07-29T04:57:53.452Z,27.89
2022-07-29T05:00:20.162Z,27.87
2022-07-29T05:02:46.817Z,27.91
2022-07-29T05:05:13.483Z,27.85
2022-07-29T05:07:42.029Z,27.69
2022-07-29T05:10:09.622Z,27.77
2022-07-29T05:12:36.461Z,27.92
2022-07-29T05:15:03.297Z,28.13
2022-07-29T05:17:29.996Z,28.37
2022-07-29T05:19:56.669Z,28.56
2022-07-29T05:22:23.252Z,28.64
2022-07-29T05:24:49.838Z,28.67
2022-07-29T05:27:16.350Z,28.64
2022-07-29T05:29:45.565Z,28.47
2022-07-29T05:32:13.524Z,28.25
2022-07-29T05:34:51.241Z,28.07
2022-07-29T05:37:20.283Z,27.90
2022-07-29T05:39:50.580Z,27.87
2022-07-29T05:42:23.225Z,27.99
2022-07-29T05:44:49.765Z,28.16
2022-07-29T05:47:17.010Z,28.22
2022-07-29T05:49:43.583Z,28.18
2022-07-29T05:52:10.297Z,28.07
2022-07-29T05:54:37.281Z,28.03
2022-07-29T05:57:04.426Z,28.08
2022-07-29T05:59:31.012Z,28.29
2022-07-29T06:01:58.633Z,28.41
2022-07-29T06:04:25.500Z,28.44
2022-07-29T06:06:52.180Z,28.47
2022-07-29T06:09:18.741Z,28.46
2022-07-29T06:11:45.428Z,28.47
2022-07-29T06:14:12.235Z,28.46
2022-07-29T06:16:38.982Z,28.37
2022-07-29T06:19:05.783Z,28.38
2022-07-29T06:21:32.542Z,28.45
2022-07-29T06:23:59.207Z,28.54
2022-07-29T06:26:30.877Z,28.62
2022-07-29T06:28:58.580Z,28.85
2022-07-29T06:31:25.198Z,29.10
2022-07-29T06:33:51.903Z,29.37
2022-07-29T06:36:21.362Z,29.43
2022-07-29T06:38:51.243Z,29.40
2022-07-29T06:41:19.012Z,29.45
2022-07-29T06:43:51.944Z,29.47
2022-07-29T06:46:20.575Z,29.54
2022-07-29T06:48:48.540Z,29.53
2022-07-29T06:51:15.169Z,29.55
2022-07-29T06:53:58.117Z,29.67
2022-07-29T06:56:28.687Z,29.87
2022-07-29T06:58:55.459Z,30.04
2022-07-29T07:01:22.188Z,30.23
2022-07-29T07:03:49.202Z,30.32
2022-07-29T07:06:15.949Z,30.43
2022-07-29T07:08:42.619Z,30.53
2022-07-29T07:11:09.753Z,30.70
2022-07-29T07:13:36.714Z,30.83
2022-07-29T07:16:04.231Z,30.98
2022-07-29T07:18:30.768Z,31.12
2022-07-29T07:20:59.089Z,31.36
2022-07-29T07:23:25.862Z,31.61
2022-07-29T07:25:52.625Z,31.67
2022-07-29T07:28:24.513Z,31.73
2022-07-29T07:30:51.971Z,31.77
2022-07-29T07:33:19.909Z,31.80
2022-07-29T07:35:46.507Z,31.85
2022-07-29T07:38:13.379Z,31.87
2022-07-29T07:40:40.000Z,31.91
2022-07-29T07:43:09.285Z,31.95
2022-07-29T07:45:38.141Z,32.02
2022-07-29T07:48:05.861Z,32.07
2022-07-29T07:50:32.636Z,32.12
2022-07-29T07:52:59.411Z,32.13
2022-07-29T07:55:27.252Z,32.20
2022-07-29T07:57:55.143Z,32.26
2022-07-29T08:00:23.113Z,32.30
2022-07-29T08:02:51.206Z,32.46
2022-07-29T08:05:18.684Z,32.68
2022-07-29T08:07:47.411Z,32.87
2022-07-29T08:10:37.942Z,33.03
2022-07-29T08:13:08.332Z,33.15
2022-07-29T08:15:35.507Z,33.14
2022-07-29T08:18:07.904Z,33.14
2022-07-29T08:20:36.525Z,33.23
2022-07-29T08:23:05.417Z,33.34
2022-07-29T08:25:32.101Z,33.41
2022-07-29T08:28:00.103Z,33.38
2022-07-29T08:30:26.900Z,33.31
2022-07-29T08:32:55.175Z,33.36
2022-07-29T08:35:22.975Z,33.41
2022-07-29T08:37:49.838Z,33.41
2022-07-29T08:40:16.608Z,33.35
2022-07-29T08:42:43.452Z,33.25
2022-07-29T08:45:10.577Z,33.31
2022-07-29T08:47:42.193Z,33.28
2022-07-29T08:50:09.993Z,33.11
2022-07-29T08:52:38.404Z,33.08
2022-07-29T08:55:06.886Z,33.08
2022-07-29T08:57:34.228Z,33.06
2022-07-29T09:00:08.026Z,33.10
2022-07-29T09:02:41.286Z,33.01
2022-07-29T09:05:08.260Z,33.05
2022-07-29T09:07:35.437Z,33.01
2022-07-29T09:10:02.531Z,32.96
2022-07-29T09:12:32.734Z,32.94
2022-07-29T09:15:01.468Z,33.04
2022-07-29T09:17:54.172Z,32.90
2022-07-29T09:20:25.067Z,32.78
2022-07-29T09:22:54.064Z,32.74
2022-07-29T09:25:37.234Z,32.88
2022-07-29T09:28:12.027Z,32.96
2022-07-29T09:30:59.244Z,32.95
2022-07-29T09:33:35.427Z,32.89
2022-07-29T09:36:09.681Z,33.03
2022-07-29T09:38:38.245Z,33.08
2022-07-29T09:41:06.736Z,33.02
2022-07-29T09:43:34.181Z,32.93
2022-07-29T09:46:14.514Z,32.83
2022-07-29T09:48:41.325Z,32.76
2022-07-29T09:51:25.531Z,32.74
2022-07-29T09:53:56.853Z,32.71
2022-07-29T09:56:42.448Z,32.73
2022-07-29T09:59:10.033Z,32.80
2022-07-29T10:01:37.032Z,32.81
2022-07-29T10:04:03.846Z,32.88
2022-07-29T10:06:30.477Z,32.94
2022-07-29T10:09:09.317Z,33.01
2022-07-29T10:11:48.831Z,32.99
2022-07-29T10:14:22.761Z,33.01
2022-07-29T10:16:49.324Z,32.88
2022-07-29T10:19:16.067Z,32.68
2022-07-29T10:21:45.101Z,32.51
2022-07-29T10:24:15.010Z,32.37
2022-07-29T10:26:42.026Z,32.30
2022-07-29T10:29:08.781Z,32.30
2022-07-29T10:31:48.457Z,32.33
2022-07-29T10:34:21.982Z,32.38
2022-07-29T10:37:01.196Z,32.49
2022-07-29T10:39:44.664Z,32.61
2022-07-29T10:42:33.468Z,32.68
2022-07-29T10:45:02.082Z,32.72
2022-07-29T10:47:31.032Z,32.69
2022-07-29T10:50:03.940Z,32.63
2022-07-29T10:52:57.311Z,32.59
2022-07-29T10:55:44.580Z,32.62
2022-07-29T10:58:21.622Z,32.56
2022-07-29T11:00:53.153Z,32.55
2022-07-29T11:03:41.696Z,32.55
2022-07-29T11:06:18.164Z,32.56
2022-07-29T11:09:20.286Z,32.55
2022-07-29T11:12:47.086Z,32.62
2022-07-29T11:15:19.744Z,32.89
2022-07-29T11:17:59.680Z,33.17
2022-07-29T11:20:46.397Z,33.45
2022-07-29T11:23:33.560Z,33.65
2022-07-29T11:26:18.545Z,33.79
2022-07-29T11:28:55.750Z,33.92
2022-07-29T11:31:44.553Z,34.04
2022-07-29T11:34:36.615Z,34.11
2022-07-29T11:37:09.338Z,34.22
2022-07-29T11:39:37.688Z,34.34
2022-07-29T11:42:32.468Z,34.37
2022-07-29T11:45:41.701Z,34.42
2022-07-29T11:50:45.894Z,34.42
2022-07-29T11:53:15.383Z,34.34
2022-07-29T11:55:51.541Z,34.30
2022-07-29T11:58:24.876Z,34.36
2022-07-29T12:00:52.121Z,34.36
2022-07-29T12:03:35.157Z,34.39
2022-07-29T12:06:14.830Z,34.36
2022-07-29T12:07:02.024Z,34.43
2022-07-29T12:08:44.352Z,34.28
2022-07-29T12:11:21.475Z,34.31
2022-07-29T12:13:49.885Z,34.39
2022-07-29T12:16:25.833Z,34.24
2022-07-29T12:19:04.562Z,33.96
2022-07-29T12:21:56.825Z,33.59
2022-07-29T12:24:26.937Z,33.36
2022-07-29T12:27:00.715Z,33.22
2022-07-29T12:29:35.330Z,33.14
2022-07-29T12:32:03.553Z,33.10
2022-07-29T12:34:30.791Z,33.12
2022-07-29T12:36:57.693Z,33.14
2022-07-29T12:39:27.626Z,33.28
2022-07-29T12:42:04.595Z,33.32
2022-07-29T12:44:51.455Z,33.26
2022-07-29T12:47:19.181Z,33.30
2022-07-29T12:49:48.843Z,33.36
2022-07-29T12:52:35.047Z,33.36
2022-07-29T12:55:02.456Z,33.40
2022-07-29T12:57:30.226Z,33.28
2022-07-29T13:00:13.654Z,33.15
2022-07-29T13:02:41.816Z,33.15
2022-07-29T13:05:13.580Z,33.19
2022-07-29T13:07:55.347Z,33.20
2022-07-29T13:10:24.951Z,33.09
2022-07-29T13:13:11.442Z,32.88
2022-07-29T13:15:41.459Z,32.69
2022-07-29T13:18:31.095Z,32.47
2022-07-29T13:20:58.576Z,32.31
2022-07-29T13:23:25.381Z,32.14
2022-07-29T13:25:52.180Z,31.92
2022-07-29T13:28:18.813Z,31.71
2022-07-29T13:30:48.108Z,31.55
2022-07-29T13:33:15.385Z,31.36
2022-07-29T13:35:42.157Z,31.24
2022-07-29T13:38:08.928Z,31.11
2022-07-29T13:40:36.384Z,31.03
2022-07-29T13:43:03.228Z,31.00
2022-07-29T13:45:30.810Z,30.97
2022-07-29T13:47:57.429Z,30.94
2022-07-29T13:50:24.193Z,30.90
2022-07-29T13:52:51.896Z,30.90
2022-07-29T13:55:18.608Z,30.87
2022-07-29T13:57:45.385Z,30.82
2022-07-29T14:00:13.229Z,30.80
2022-07-29T14:02:39.851Z,30.72
2022-07-29T14:05:08.655Z,30.70
2022-07-29T14:07:35.661Z,30.73
2022-07-29T14:10:02.350Z,30.81
2022-07-29T14:12:28.922Z,30.78
2022-07-29T14:14:55.531Z,30.70
2022-07-29T14:17:22.804Z,30.67
2022-07-29T14:19:49.803Z,30.63
2022-07-29T14:22:16.493Z,30.54
2022-07-29T14:24:43.058Z,30.46
2022-07-29T14:27:09.737Z,30.29
2022-07-29T14:29:38.050Z,30.21
2022-07-29T14:32:09.957Z,30.33
2022-07-29T14:34:37.789Z,30.32
2022-07-29T14:37:06.621Z,30.31
2022-07-29T14:39:36.942Z,30.28
2022-07-29T14:42:06.248Z,30.23
2022-07-29T14:44:32.939Z,30.23
2022-07-29T14:47:01.196Z,30.26
2022-07-29T14:49:34.558Z,30.25
2022-07-29T14:52:01.410Z,30.28
2022-07-29T14:54:28.247Z,30.21
2022-07-29T14:56:58.036Z,29.92
2022-07-29T14:59:25.110Z,29.65
2022-07-29T15:01:51.743Z,29.46
2022-07-29T15:04:18.346Z,29.39
2022-07-29T15:06:45.196Z,29.30
2022-07-29T15:09:11.878Z,29.31
2022-07-29T15:11:38.956Z,29.40
2022-07-29T15:14:06.782Z,29.42
2022-07-29T15:16:34.193Z,29.47
2022-07-29T15:19:01.994Z,29.50
2022-07-29T15:21:28.724Z,29.47
2022-07-29T15:23:55.571Z,29.48
2022-07-29T15:26:22.468Z,29.30
2022-07-29T15:28:49.117Z,29.30
2022-07-29T15:31:15.897Z,29.47
2022-07-29T15:33:42.660Z,29.68
2022-07-29T15:36:09.623Z,29.96
2022-07-29T15:38:36.308Z,30.17
2022-07-29T15:41:08.854Z,30.34
2022-07-29T15:43:38.525Z,30.32
2022-07-29T15:46:23.786Z,30.30
2022-07-29T15:48:50.523Z,30.37
2022-07-29T15:51:17.350Z,30.54
2022-07-29T15:53:44.076Z,30.72
2022-07-29T15:56:20.290Z,30.85
2022-07-29T15:58:46.884Z,30.87
2022-07-29T16:01:13.605Z,30.74
2022-07-29T16:03:45.690Z,30.75
2022-07-29T16:06:13.504Z,30.81
2022-07-29T16:08:40.115Z,30.85
2022-07-29T16:11:06.738Z,30.87
2022-07-29T16:13:33.490Z,30.83
2022-07-29T16:16:02.803Z,30.47
2022-07-29T16:18:30.641Z,30.17
2022-07-29T16:20:57.741Z,29.99
2022-07-29T16:23:24.735Z,29.94
2022-07-29T16:25:59.625Z,29.89
2022-07-29T16:28:27.664Z,29.76
2022-07-29T16:30:54.205Z,29.66
2022-07-29T16:33:20.920Z,29.52
2022-07-29T16:35:47.442Z,29.29
2022-07-29T16:38:14.053Z,28.99
2022-07-29T16:40:40.784Z,28.85
2022-07-29T16:43:08.324Z,28.82
2022-07-29T16:45:43.896Z,28.84
2022-07-29T16:48:14.074Z,28.97
2022-07-29T16:50:40.989Z,29.19
2022-07-29T16:53:10.271Z,29.56
2022-07-29T16:55:37.038Z,29.64
2022-07-29T16:58:03.628Z,29.57
2022-07-29T17:00:30.260Z,29.53
2022-07-29T17:02:56.928Z,29.60
2022-07-29T17:05:23.683Z,29.53
2022-07-29T17:07:50.272Z,29.51
2022-07-29T17:10:17.426Z,29.57
2022-07-29T17:12:44.683Z,29.82
2022-07-29T17:15:12.491Z,29.77
2022-07-29T17:17:54.988Z,29.70
2022-07-29T17:20:22.556Z,29.51
2022-07-29T17:22:49.229Z,29.43
2022-07-29T17:25:20.669Z,29.30
2022-07-29T17:27:49.723Z,29.19
2022-07-29T17:30:16.842Z,29.16
2022-07-29T17:32:43.412Z,29.09
2022-07-29T17:35:39.306Z,29.03
2022-07-29T17:38:05.934Z,28.94
2022-07-29T17:40:32.580Z,28.94
2022-07-29T17:42:59.246Z,28.96
2022-07-29T17:45:26.268Z,29.10
2022-07-29T17:48:13.168Z,29.16
2022-07-29T17:50:39.913Z,29.14
2022-07-29T17:53:15.955Z,29.09
2022-07-29T17:55:45.432Z,29.11
2022-07-29T17:58:12.266Z,29.04
2022-07-29T18:00:39.110Z,28.85
2022-07-29T18:03:05.919Z,28.71
2022-07-29T18:05:32.803Z,28.63
2022-07-29T18:07:59.545Z,28.56
2022-07-29T18:10:26.205Z,28.41
2022-07-29T18:12:52.794Z,28.37
2022-07-29T18:15:19.560Z,28.31
2022-07-29T18:17:56.641Z,28.26
2022-07-29T18:20:27.356Z,28.25
2022-07-29T18:22:53.927Z,28.32
2022-07-29T18:25:20.820Z,28.40
2022-07-29T18:27:47.377Z,28.41
2022-07-29T18:30:15.217Z,28.40
2022-07-29T18:32:54.329Z,28.35
2022-07-29T18:35:29.034Z,28.44
2022-07-29T18:38:01.346Z,28.53
2022-07-29T18:40:29.637Z,28.61
2022-07-29T18:42:56.266Z,28.66
2022-07-29T18:45:23.029Z,28.65
2022-07-29T18:47:55.425Z,28.63
2022-07-29T18:50:28.862Z,28.65
2022-07-29T18:52:58.403Z,28.63
2022-07-29T18:55:26.193Z,28.57
2022-07-29T18:57:54.189Z,28.51
2022-07-29T19:00:22.782Z,28.56
2022-07-29T19:02:49.962Z,28.63
2022-07-29T19:05:16.633Z,28.64
2022-07-29T19:07:43.211Z,28.54
2022-07-29T19:10:10.055Z,28.37
2022-07-29T19:12:36.933Z,28.31
2022-07-29T19:15:03.731Z,28.27
2022-07-29T19:17:30.407Z,28.21
2022-07-29T19:19:57.162Z,28.18
2022-07-29T19:22:23.770Z,28.28
2022-07-29T19:24:53.050Z,28.41
2022-07-29T19:27:19.969Z,28.41
2022-07-29T19:29:48.167Z,28.40
2022-07-29T19:32:24.794Z,28.42
2022-07-29T19:35:10.379Z,28.43
2022-07-29T19:37:37.494Z,28.45
2022-07-29T19:40:05.479Z,28.49
2022-07-29T19:42:31.966Z,28.38
2022-07-29T19:44:58.483Z,28.36
2022-07-29T19:47:24.992Z,28.34
2022-07-29T19:49:51.580Z,28.40
2022-07-29T19:52:18.128Z,28.36
2022-07-29T19:54:44.677Z,28.28
2022-07-29T19:57:11.198Z,28.24
2022-07-29T19:59:37.769Z,28.17
2022-07-29T20:02:04.602Z,28.21
2022-07-29T20:04:31.275Z,28.20
2022-07-29T20:07:01.452Z,28.18
2022-07-29T20:09:28.854Z,28.22
2022-07-29T20:11:55.547Z,28.20
2022-07-29T20:14:22.597Z,28.08
2022-07-29T20:16:49.909Z,27.97
2022-07-29T20:19:16.735Z,27.93
2022-07-29T20:21:43.266Z,27.83
2022-07-29T20:24:10.395Z,27.73
2022-07-29T20:26:36.915Z,27.69
2022-07-29T20:29:05.231Z,27.73
2022-07-29T20:31:32.465Z,27.66
2022-07-29T20:33:59.254Z,27.61
2022-07-29T20:36:25.834Z,27.63
2022-07-29T20:38:52.446Z,27.71
2022-07-29T20:41:19.052Z,27.71
2022-07-29T20:43:45.677Z,27.71
2022-07-29T20:46:12.434Z,27.71
2022-07-29T20:48:40.514Z,27.63
2022-07-29T20:51:07.285Z,27.51
2022-07-29T20:53:34.103Z,27.43
2022-07-29T20:56:00.673Z,27.37
2022-07-29T20:58:27.202Z,27.35
2022-07-29T21:00:53.859Z,27.38
2022-07-29T21:03:21.066Z,27.53
2022-07-29T21:05:47.761Z,27.60
2022-07-29T21:08:14.757Z,27.69
2022-07-29T21:10:41.289Z,27.77
2022-07-29T21:13:07.851Z,27.84
2022-07-29T21:15:35.025Z,27.93
2022-07-29T21:18:06.039Z,27.98
2022-07-29T21:20:32.548Z,28.03
2022-07-29T21:22:59.100Z,27.94
2022-07-29T21:25:27.088Z,27.91
2022-07-29T21:28:11.995Z,27.96
2022-07-29T21:30:38.673Z,27.93
2022-07-29T21:33:05.289Z,27.83
2022-07-29T21:36:06.884Z,27.79
2022-07-29T21:38:19.025Z,27.76
2022-07-29T21:40:47.126Z,27.76
2022-07-29T21:43:15.277Z,27.67
2022-07-29T21:45:42.621Z,27.39
2022-07-29T21:48:09.299Z,27.29
2022-07-29T21:50:36.420Z,27.19
2022-07-29T21:53:02.961Z,26.96
2022-07-29T21:55:31.113Z,26.79
2022-07-29T21:57:59.164Z,26.73
2022-07-29T22:00:25.872Z,26.71
2022-07-29T22:02:53.229Z,26.64
2022-07-29T22:05:20.308Z,26.59
2022-07-29T22:07:56.477Z,26.66
2022-07-29T22:10:25.671Z,26.67
2022-07-29T22:12:53.591Z,26.69
2022-07-29T22:15:20.291Z,26.72
2022-07-29T22:17:47.903Z,26.80
2022-07-29T22:20:14.914Z,26.84
2022-07-29T22:22:41.694Z,26.79
2022-07-29T22:25:10.107Z,26.87
2022-07-29T22:27:37.044Z,26.81
2022-07-29T22:30:05.705Z,26.72
2022-07-29T22:32:32.647Z,26.68
2022-07-29T22:34:59.293Z,26.59
2022-07-29T22:37:26.040Z,26.62
2022-07-29T22:39:52.559Z,26.64
2022-07-29T22:42:19.517Z,26.50
2022-07-29T22:44:46.025Z,26.47
2022-07-29T22:47:12.540Z,26.45
2022-07-29T22:49:39.033Z,26.52
2022-07-29T22:52:05.851Z,26.48
2022-07-29T22:54:32.460Z,26.32
2022-07-29T22:56:59.249Z,26.23
2022-07-29T22:59:25.998Z,26.14
2022-07-29T23:01:52.523Z,26.23
2022-07-29T23:04:26.095Z,26.30
2022-07-29T23:06:52.696Z,26.33
2022-07-29T23:09:19.240Z,26.31
2022-07-29T23:11:47.094Z,26.27
2022-07-29T23:14:13.719Z,26.40
2022-07-29T23:16:40.289Z,26.46
2022-07-29T23:19:06.904Z,26.46
2022-07-29T23:21:33.550Z,26.38
2022-07-29T23:24:00.131Z,26.28
2022-07-29T23:26:26.758Z,26.24
2022-07-29T23:28:53.303Z,26.18
2022-07-29T23:31:19.887Z,26.16
2022-07-29T23:33:46.479Z,26.12
2022-07-29T23:36:13.091Z,26.12
2022-07-29T23:38:40.941Z,26.09
2022-07-29T23:41:09.663Z,26.11
2022-07-29T23:43:37.362Z,26.13
2022-07-29T23:46:04.700Z,26.11
2022-07-29T23:48:32.981Z,26.08
2022-07-29T23:51:01.080Z,26.11
2022-07-29T23:53:28.299Z,26.10
2022-07-29T23:55:55.534Z,26.13
2022-07-29T23:58:22.115Z,26.12
